createdAt,value
2023-03-12T00:00:52.975Z,73.23
2023-03-12T00:11:11.938Z,73.46
2023-03-12T00:21:14.400Z,73.11
2023-03-12T00:31:29.918Z,74.24
2023-03-12T00:41:32.326Z,73.55
2023-03-12T00:51:34.710Z,73.23
2023-03-12T01:01:37.069Z,73.33
2023-03-12T01:11:39.476Z,74.23
2023-03-12T01:21:41.832Z,73.72
2023-03-12T01:31:44.218Z,73.42
2023-03-12T01:41:46.574Z,73.94
2023-03-12T09:02:17.114Z,58.00
2023-03-12T09:12:19.534Z,52.78
2023-03-12T09:22:22.014Z,52.14
2023-03-12T09:32:24.360Z,46.53
2023-03-12T09:42:50.739Z,47.55
2023-03-12T09:53:16.253Z,44.69
2023-03-12T10:03:30.583Z,46.65
2023-03-12T10:13:54.055Z,47.48
2023-03-12T10:24:48.612Z,47.63
2023-03-12T10:35:00.516Z,44.13
2023-03-12T10:45:27.327Z,45.02
2023-03-12T10:55:30.406Z,46.66
2023-03-12T11:05:37.207Z,45.53
2023-03-12T11:15:42.406Z,42.95
2023-03-12T11:25:52.671Z,36.32
2023-03-12T11:36:09.977Z,36.40
2023-03-12T11:46:24.656Z,35.43
2023-03-12T11:56:30.885Z,33.78
2023-03-12T12:07:00.435Z,32.65
2023-03-12T12:17:17.786Z,34.94
2023-03-12T12:27:22.021Z,33.70
2023-03-12T12:37:59.689Z,35.76
2023-03-12T12:48:28.564Z,37.15
2023-03-12T12:58:40.472Z,35.93
2023-03-12T13:08:43.287Z,37.07
2023-03-12T13:19:22.947Z,37.87
2023-03-12T13:29:36.642Z,36.25
2023-03-12T13:39:39.062Z,39.35
2023-03-12T13:49:54.349Z,40.97
2023-03-12T13:59:57.757Z,42.33
2023-03-12T14:10:08.711Z,43.79
2023-03-12T14:20:21.648Z,44.51
2023-03-12T14:31:03.294Z,45.70
2023-03-12T14:41:13.709Z,46.65
2023-03-12T14:51:28.468Z,47.11
2023-03-12T15:01:33.602Z,47.25
2023-03-12T15:11:38.085Z,47.66
2023-03-12T15:21:40.600Z,49.11
2023-03-12T15:31:47.103Z,48.80
2023-03-12T15:41:50.130Z,49.07
2023-03-12T15:52:04.425Z,50.48
2023-03-12T16:02:13.196Z,51.72
2023-03-12T16:12:16.067Z,51.97
2023-03-12T16:22:20.405Z,52.31
2023-03-12T16:32:23.591Z,54.09
2023-03-12T16:42:26.022Z,53.57
2023-03-12T16:52:28.602Z,53.67
2023-03-12T17:02:31.500Z,54.62
2023-03-12T17:12:43.337Z,54.19
2023-03-12T17:22:46.097Z,55.39
2023-03-12T17:32:49.745Z,56.62
2023-03-12T17:42:52.241Z,56.76
2023-03-12T17:52:54.662Z,56.49
2023-03-12T18:02:57.098Z,56.83
2023-03-12T18:12:59.518Z,57.28
2023-03-12T18:23:01.907Z,57.34
2023-03-12T18:33:04.494Z,58.80
2023-03-12T18:43:07.746Z,58.89
2023-03-12T18:53:10.120Z,60.09
2023-03-12T19:03:12.526Z,60.11
2023-03-12T19:13:15.673Z,61.17
2023-03-12T19:23:18.025Z,61.52
2023-03-12T19:33:20.467Z,63.83
2023-03-12T19:43:23.197Z,64.24
2023-03-12T19:53:26.889Z,64.89
2023-03-12T20:03:30.918Z,65.82
2023-03-12T20:13:33.803Z,67.90
2023-03-12T20:23:36.219Z,67.74
2023-03-12T20:33:38.637Z,68.19
2023-03-12T20:43:42.550Z,68.22
2023-03-12T20:53:45.042Z,68.65
2023-03-12T21:03:47.499Z,69.33
2023-03-12T21:13:49.902Z,68.91
2023-03-12T21:23:52.321Z,69.93
2023-03-12T21:40:11.370Z,71.21
2023-03-12T21:50:13.852Z,71.80
2023-03-12T22:00:16.857Z,70.30
2023-03-12T22:10:19.230Z,71.63
2023-03-12T22:20:21.735Z,73.58
2023-03-12T22:30:24.086Z,73.26
2023-03-12T22:40:27.067Z,74.10
2023-03-12T22:50:29.681Z,75.07
2023-03-12T23:00:32.124Z,74.15
2023-03-12T23:10:34.477Z,73.46
2023-03-12T23:20:36.941Z,74.46
2023-03-12T23:30:39.460Z,73.84
2023-03-12T23:40:41.809Z,73.16
2023-03-12T23:50:44.165Z,74.18
